sensor_id;sensor_type;location;lat;lon;timestamp;P1;durP1;ratioP1;P2;durP2;ratioP2
4391;SDS011;2210;51.938;8.488;2022-10-14T00:02:15;21.33;;;17.40;;
4391;SDS011;2210;51.938;8.488;2022-10-14T00:06:18;18.47;;;15.20;;
4391;SDS011;2210;51.938;8.488;2022-10-14T00:10:19;21.23;;;16.37;;
4391;SDS011;2210;51.938;8.488;2022-10-14T00:14:20;18.43;;;15.97;;
4391;SDS011;2210;51.938;8.488;2022-10-14T00:18:21;25.07;;;16.63;;
4391;SDS011;2210;51.938;8.488;2022-10-14T00:22:21;25.70;;;16.60;;
4391;SDS011;2210;51.938;8.488;2022-10-14T00:30:26;24.53;;;17.73;;
4391;SDS011;2210;51.938;8.488;2022-10-14T00:34:26;25.80;;;17.70;;
4391;SDS011;2210;51.938;8.488;2022-10-14T00:38:26;24.80;;;17.70;;
4391;SDS011;2210;51.938;8.488;2022-10-14T00:42:27;22.63;;;17.80;;
4391;SDS011;2210;51.938;8.488;2022-10-14T00:46:36;24.93;;;17.00;;
4391;SDS011;2210;51.938;8.488;2022-10-14T00:50:38;20.13;;;16.40;;
4391;SDS011;2210;51.938;8.488;2022-10-14T00:54:44;27.07;;;17.80;;
4391;SDS011;2210;51.938;8.488;2022-10-14T00:58:47;22.93;;;18.17;;
4391;SDS011;2210;51.938;8.488;2022-10-14T01:02:48;21.40;;;17.57;;
4391;SDS011;2210;51.938;8.488;2022-10-14T01:11:09;24.13;;;17.23;;
4391;SDS011;2210;51.938;8.488;2022-10-14T01:32:35;26.73;;;20.60;;
4391;SDS011;2210;51.938;8.488;2022-10-14T01:36:48;28.07;;;20.60;;
4391;SDS011;2210;51.938;8.488;2022-10-14T01:41:06;31.10;;;20.83;;
4391;SDS011;2210;51.938;8.488;2022-10-14T01:45:14;34.00;;;23.60;;
4391;SDS011;2210;51.938;8.488;2022-10-14T01:49:40;31.93;;;22.70;;
4391;SDS011;2210;51.938;8.488;2022-10-14T01:53:48;39.93;;;23.90;;
4391;SDS011;2210;51.938;8.488;2022-10-14T01:57:55;38.57;;;22.60;;
4391;SDS011;2210;51.938;8.488;2022-10-14T02:01:57;34.27;;;22.80;;
4391;SDS011;2210;51.938;8.488;2022-10-14T02:05:59;30.50;;;22.40;;
4391;SDS011;2210;51.938;8.488;2022-10-14T02:10:06;33.30;;;22.30;;
4391;SDS011;2210;51.938;8.488;2022-10-14T02:14:16;32.37;;;21.53;;
4391;SDS011;2210;51.938;8.488;2022-10-14T02:18:40;29.77;;;20.40;;
4391;SDS011;2210;51.938;8.488;2022-10-14T02:23:32;30.73;;;20.97;;
4391;SDS011;2210;51.938;8.488;2022-10-14T02:27:15;31.23;;;21.43;;
4391;SDS011;2210;51.938;8.488;2022-10-14T02:31:19;38.30;;;22.37;;
4391;SDS011;2210;51.938;8.488;2022-10-14T02:35:20;35.17;;;21.77;;
4391;SDS011;2210;51.938;8.488;2022-10-14T02:39:27;32.50;;;20.70;;
4391;SDS011;2210;51.938;8.488;2022-10-14T02:43:30;29.70;;;20.10;;
4391;SDS011;2210;51.938;8.488;2022-10-14T02:47:30;30.27;;;20.90;;
4391;SDS011;2210;51.938;8.488;2022-10-14T02:51:30;28.37;;;18.47;;
4391;SDS011;2210;51.938;8.488;2022-10-14T02:55:31;35.20;;;19.60;;
4391;SDS011;2210;51.938;8.488;2022-10-14T02:59:31;42.33;;;22.13;;
4391;SDS011;2210;51.938;8.488;2022-10-14T03:03:31;28.40;;;20.17;;
4391;SDS011;2210;51.938;8.488;2022-10-14T03:07:31;26.60;;;20.10;;
4391;SDS011;2210;51.938;8.488;2022-10-14T03:11:33;26.80;;;19.60;;
4391;SDS011;2210;51.938;8.488;2022-10-14T03:15:33;34.50;;;21.17;;
4391;SDS011;2210;51.938;8.488;2022-10-14T03:19:33;29.63;;;19.13;;
4391;SDS011;2210;51.938;8.488;2022-10-14T03:23:34;34.43;;;22.00;;
4391;SDS011;2210;51.938;8.488;2022-10-14T03:27:34;45.50;;;24.77;;
4391;SDS011;2210;51.938;8.488;2022-10-14T03:31:35;28.20;;;19.73;;
4391;SDS011;2210;51.938;8.488;2022-10-14T03:35:35;32.87;;;22.00;;
4391;SDS011;2210;51.938;8.488;2022-10-14T03:39:35;30.37;;;21.83;;
4391;SDS011;2210;51.938;8.488;2022-10-14T03:43:35;36.20;;;24.57;;
4391;SDS011;2210;51.938;8.488;2022-10-14T03:47:36;43.10;;;23.80;;
4391;SDS011;2210;51.938;8.488;2022-10-14T03:51:36;35.00;;;22.30;;
4391;SDS011;2210;51.938;8.488;2022-10-14T03:55:37;36.67;;;22.90;;
4391;SDS011;2210;51.938;8.488;2022-10-14T03:59:37;36.80;;;21.37;;
4391;SDS011;2210;51.938;8.488;2022-10-14T04:03:38;34.67;;;22.70;;
4391;SDS011;2210;51.938;8.488;2022-10-14T04:07:40;36.57;;;24.17;;
4391;SDS011;2210;51.938;8.488;2022-10-14T04:11:40;39.27;;;23.03;;
4391;SDS011;2210;51.938;8.488;2022-10-14T04:15:40;34.37;;;22.53;;
4391;SDS011;2210;51.938;8.488;2022-10-14T04:19:41;28.63;;;21.50;;
4391;SDS011;2210;51.938;8.488;2022-10-14T04:23:41;35.47;;;23.73;;
4391;SDS011;2210;51.938;8.488;2022-10-14T04:27:41;43.87;;;26.10;;
4391;SDS011;2210;51.938;8.488;2022-10-14T04:31:41;39.77;;;24.13;;
4391;SDS011;2210;51.938;8.488;2022-10-14T04:35:42;40.20;;;24.30;;
4391;SDS011;2210;51.938;8.488;2022-10-14T04:39:42;37.60;;;22.80;;
4391;SDS011;2210;51.938;8.488;2022-10-14T04:43:42;39.87;;;23.70;;
4391;SDS011;2210;51.938;8.488;2022-10-14T04:47:42;32.20;;;22.80;;
4391;SDS011;2210;51.938;8.488;2022-10-14T04:51:43;37.50;;;23.03;;
4391;SDS011;2210;51.938;8.488;2022-10-14T04:55:44;39.83;;;24.07;;
4391;SDS011;2210;51.938;8.488;2022-10-14T04:59:45;35.93;;;22.60;;
4391;SDS011;2210;51.938;8.488;2022-10-14T05:03:45;47.53;;;25.30;;
4391;SDS011;2210;51.938;8.488;2022-10-14T05:07:47;52.33;;;27.50;;
4391;SDS011;2210;51.938;8.488;2022-10-14T05:11:47;41.43;;;24.83;;
4391;SDS011;2210;51.938;8.488;2022-10-14T05:15:47;48.50;;;27.00;;
4391;SDS011;2210;51.938;8.488;2022-10-14T05:19:48;51.53;;;28.67;;
4391;SDS011;2210;51.938;8.488;2022-10-14T05:23:48;52.10;;;28.10;;
4391;SDS011;2210;51.938;8.488;2022-10-14T05:27:48;44.17;;;26.20;;
4391;SDS011;2210;51.938;8.488;2022-10-14T05:31:49;60.67;;;28.70;;
4391;SDS011;2210;51.938;8.488;2022-10-14T05:35:49;47.20;;;27.03;;
4391;SDS011;2210;51.938;8.488;2022-10-14T05:39:49;52.10;;;26.47;;
4391;SDS011;2210;51.938;8.488;2022-10-14T05:43:50;42.93;;;26.37;;
4391;SDS011;2210;51.938;8.488;2022-10-14T05:47:50;40.63;;;22.87;;
4391;SDS011;2210;51.938;8.488;2022-10-14T05:51:51;46.53;;;27.37;;
4391;SDS011;2210;51.938;8.488;2022-10-14T05:55:51;44.90;;;25.23;;
4391;SDS011;2210;51.938;8.488;2022-10-14T05:59:51;45.50;;;25.00;;
4391;SDS011;2210;51.938;8.488;2022-10-14T06:03:51;48.20;;;24.67;;
4391;SDS011;2210;51.938;8.488;2022-10-14T06:07:52;47.03;;;26.70;;
4391;SDS011;2210;51.938;8.488;2022-10-14T06:11:52;49.90;;;26.00;;
4391;SDS011;2210;51.938;8.488;2022-10-14T06:15:52;50.87;;;26.57;;
4391;SDS011;2210;51.938;8.488;2022-10-14T06:19:53;53.53;;;26.10;;
4391;SDS011;2210;51.938;8.488;2022-10-14T06:23:53;50.50;;;26.13;;
4391;SDS011;2210;51.938;8.488;2022-10-14T06:27:54;43.97;;;26.73;;
4391;SDS011;2210;51.938;8.488;2022-10-14T06:31:54;56.97;;;28.93;;
4391;SDS011;2210;51.938;8.488;2022-10-14T06:35:54;47.27;;;27.10;;
4391;SDS011;2210;51.938;8.488;2022-10-14T06:39:55;41.63;;;26.40;;
4391;SDS011;2210;51.938;8.488;2022-10-14T06:43:55;39.53;;;24.87;;
4391;SDS011;2210;51.938;8.488;2022-10-14T06:47:55;43.80;;;26.07;;
4391;SDS011;2210;51.938;8.488;2022-10-14T06:51:56;37.47;;;24.87;;
4391;SDS011;2210;51.938;8.488;2022-10-14T06:55:57;40.83;;;25.03;;
4391;SDS011;2210;51.938;8.488;2022-10-14T06:59:58;39.27;;;23.57;;
4391;SDS011;2210;51.938;8.488;2022-10-14T07:03:58;44.07;;;24.93;;
4391;SDS011;2210;51.938;8.488;2022-10-14T07:07:59;42.30;;;25.30;;
4391;SDS011;2210;51.938;8.488;2022-10-14T07:11:59;50.13;;;26.80;;
4391;SDS011;2210;51.938;8.488;2022-10-14T07:16:00;41.10;;;24.20;;
4391;SDS011;2210;51.938;8.488;2022-10-14T07:20:01;37.07;;;23.57;;
4391;SDS011;2210;51.938;8.488;2022-10-14T07:24:01;39.90;;;24.53;;
4391;SDS011;2210;51.938;8.488;2022-10-14T07:28:01;42.40;;;24.73;;
4391;SDS011;2210;51.938;8.488;2022-10-14T07:32:02;39.93;;;25.00;;
4391;SDS011;2210;51.938;8.488;2022-10-14T07:36:03;36.40;;;23.40;;
4391;SDS011;2210;51.938;8.488;2022-10-14T07:40:04;39.87;;;25.07;;
4391;SDS011;2210;51.938;8.488;2022-10-14T07:44:06;37.53;;;22.70;;
4391;SDS011;2210;51.938;8.488;2022-10-14T07:48:08;34.70;;;22.67;;
4391;SDS011;2210;51.938;8.488;2022-10-14T07:52:08;33.53;;;23.13;;
4391;SDS011;2210;51.938;8.488;2022-10-14T07:56:09;32.70;;;23.17;;
4391;SDS011;2210;51.938;8.488;2022-10-14T08:00:09;27.17;;;21.30;;
4391;SDS011;2210;51.938;8.488;2022-10-14T08:04:10;30.40;;;20.00;;
4391;SDS011;2210;51.938;8.488;2022-10-14T08:08:10;24.87;;;18.90;;
4391;SDS011;2210;51.938;8.488;2022-10-14T08:12:11;24.40;;;17.27;;
4391;SDS011;2210;51.938;8.488;2022-10-14T08:16:15;18.60;;;14.73;;
4391;SDS011;2210;51.938;8.488;2022-10-14T08:20:16;20.00;;;16.20;;
4391;SDS011;2210;51.938;8.488;2022-10-14T08:24:16;19.97;;;15.40;;
4391;SDS011;2210;51.938;8.488;2022-10-14T08:28:16;21.37;;;14.83;;
4391;SDS011;2210;51.938;8.488;2022-10-14T08:32:17;17.20;;;13.30;;
4391;SDS011;2210;51.938;8.488;2022-10-14T08:36:17;14.67;;;11.90;;
4391;SDS011;2210;51.938;8.488;2022-10-14T08:40:18;13.07;;;11.43;;
4391;SDS011;2210;51.938;8.488;2022-10-14T08:48:25;12.30;;;10.00;;
4391;SDS011;2210;51.938;8.488;2022-10-14T08:52:47;13.33;;;10.37;;
4391;SDS011;2210;51.938;8.488;2022-10-14T08:56:52;13.77;;;9.97;;
4391;SDS011;2210;51.938;8.488;2022-10-14T09:00:54;10.83;;;9.67;;
4391;SDS011;2210;51.938;8.488;2022-10-14T09:04:55;11.00;;;9.90;;
4391;SDS011;2210;51.938;8.488;2022-10-14T09:13:36;10.10;;;8.80;;
4391;SDS011;2210;51.938;8.488;2022-10-14T09:17:45;13.57;;;9.73;;
4391;SDS011;2210;51.938;8.488;2022-10-14T09:22:00;9.73;;;8.53;;
4391;SDS011;2210;51.938;8.488;2022-10-14T09:26:04;11.57;;;8.80;;
4391;SDS011;2210;51.938;8.488;2022-10-14T09:30:14;10.10;;;8.17;;
4391;SDS011;2210;51.938;8.488;2022-10-14T09:34:17;10.93;;;9.27;;
4391;SDS011;2210;51.938;8.488;2022-10-14T09:38:23;7.83;;;7.13;;
4391;SDS011;2210;51.938;8.488;2022-10-14T09:42:26;8.43;;;7.47;;
4391;SDS011;2210;51.938;8.488;2022-10-14T09:46:50;7.70;;;6.80;;
4391;SDS011;2210;51.938;8.488;2022-10-14T09:50:54;7.80;;;7.00;;
4391;SDS011;2210;51.938;8.488;2022-10-14T09:54:57;7.20;;;6.50;;
4391;SDS011;2210;51.938;8.488;2022-10-14T09:59:00;6.53;;;5.10;;
4391;SDS011;2210;51.938;8.488;2022-10-14T10:03:03;5.00;;;4.60;;
4391;SDS011;2210;51.938;8.488;2022-10-14T10:07:05;4.87;;;4.47;;
4391;SDS011;2210;51.938;8.488;2022-10-14T10:11:29;4.97;;;4.47;;
4391;SDS011;2210;51.938;8.488;2022-10-14T10:15:32;5.10;;;4.60;;
4391;SDS011;2210;51.938;8.488;2022-10-14T10:19:34;5.90;;;4.50;;
4391;SDS011;2210;51.938;8.488;2022-10-14T10:23:36;4.50;;;4.10;;
4391;SDS011;2210;51.938;8.488;2022-10-14T10:39:55;4.17;;;3.77;;
4391;SDS011;2210;51.938;8.488;2022-10-14T10:44:10;3.80;;;3.20;;
4391;SDS011;2210;51.938;8.488;2022-10-14T10:48:56;3.07;;;2.77;;
4391;SDS011;2210;51.938;8.488;2022-10-14T11:05:47;2.70;;;2.50;;
4391;SDS011;2210;51.938;8.488;2022-10-14T11:10:42;2.47;;;2.27;;
4391;SDS011;2210;51.938;8.488;2022-10-14T11:14:53;2.47;;;2.27;;
4391;SDS011;2210;51.938;8.488;2022-10-14T11:19:07;2.23;;;2.03;;
4391;SDS011;2210;51.938;8.488;2022-10-14T11:23:30;3.70;;;1.67;;
4391;SDS011;2210;51.938;8.488;2022-10-14T11:28:01;1.40;;;1.30;;
4391;SDS011;2210;51.938;8.488;2022-10-14T11:32:13;1.80;;;1.40;;
4391;SDS011;2210;51.938;8.488;2022-10-14T11:40:36;1.60;;;1.10;;
4391;SDS011;2210;51.938;8.488;2022-10-14T11:44:41;2.00;;;1.33;;
4391;SDS011;2210;51.938;8.488;2022-10-14T11:52:57;0.87;;;0.80;;
4391;SDS011;2210;51.938;8.488;2022-10-14T11:57:06;0.90;;;0.90;;
4391;SDS011;2210;51.938;8.488;2022-10-14T12:01:13;1.10;;;1.00;;
4391;SDS011;2210;51.938;8.488;2022-10-14T12:05:24;1.33;;;1.23;;
4391;SDS011;2210;51.938;8.488;2022-10-14T12:09:40;1.23;;;1.13;;
4391;SDS011;2210;51.938;8.488;2022-10-14T12:13:46;1.43;;;0.97;;
4391;SDS011;2210;51.938;8.488;2022-10-14T12:18:00;1.00;;;0.90;;
4391;SDS011;2210;51.938;8.488;2022-10-14T12:22:04;0.80;;;0.73;;
4391;SDS011;2210;51.938;8.488;2022-10-14T12:34:36;1.33;;;0.90;;
4391;SDS011;2210;51.938;8.488;2022-10-14T12:38:40;1.10;;;1.00;;
4391;SDS011;2210;51.938;8.488;2022-10-14T12:46:42;1.50;;;0.80;;
4391;SDS011;2210;51.938;8.488;2022-10-14T12:50:44;1.07;;;0.70;;
4391;SDS011;2210;51.938;8.488;2022-10-14T12:54:46;0.90;;;0.90;;
4391;SDS011;2210;51.938;8.488;2022-10-14T12:58:55;1.10;;;0.77;;
4391;SDS011;2210;51.938;8.488;2022-10-14T13:03:01;1.93;;;0.77;;
4391;SDS011;2210;51.938;8.488;2022-10-14T13:07:25;1.27;;;0.93;;
4391;SDS011;2210;51.938;8.488;2022-10-14T13:11:28;1.87;;;0.87;;
4391;SDS011;2210;51.938;8.488;2022-10-14T13:15:31;0.77;;;0.70;;
4391;SDS011;2210;51.938;8.488;2022-10-14T13:23:36;1.00;;;0.90;;
4391;SDS011;2210;51.938;8.488;2022-10-14T13:27:50;1.13;;;1.03;;
4391;SDS011;2210;51.938;8.488;2022-10-14T13:36:30;0.80;;;0.77;;
4391;SDS011;2210;51.938;8.488;2022-10-14T13:40:36;4.93;;;1.27;;
4391;SDS011;2210;51.938;8.488;2022-10-14T13:44:38;1.47;;;1.30;;
4391;SDS011;2210;51.938;8.488;2022-10-14T13:48:39;1.00;;;0.90;;
4391;SDS011;2210;51.938;8.488;2022-10-14T13:52:52;1.33;;;0.90;;
4391;SDS011;2210;51.938;8.488;2022-10-14T13:56:59;3.17;;;1.40;;
4391;SDS011;2210;51.938;8.488;2022-10-14T14:01:08;1.10;;;1.00;;
4391;SDS011;2210;51.938;8.488;2022-10-14T14:05:14;1.43;;;1.00;;
4391;SDS011;2210;51.938;8.488;2022-10-14T14:09:21;1.40;;;1.30;;
4391;SDS011;2210;51.938;8.488;2022-10-14T14:13:25;2.03;;;1.60;;
4391;SDS011;2210;51.938;8.488;2022-10-14T14:17:27;3.37;;;2.37;;
4391;SDS011;2210;51.938;8.488;2022-10-14T14:21:32;2.87;;;2.00;;
4391;SDS011;2210;51.938;8.488;2022-10-14T14:25:32;1.67;;;1.57;;
4391;SDS011;2210;51.938;8.488;2022-10-14T14:29:33;6.13;;;1.63;;
4391;SDS011;2210;51.938;8.488;2022-10-14T14:33:34;5.70;;;1.53;;
4391;SDS011;2210;51.938;8.488;2022-10-14T14:37:34;1.70;;;1.60;;
4391;SDS011;2210;51.938;8.488;2022-10-14T14:41:35;1.70;;;1.47;;
4391;SDS011;2210;51.938;8.488;2022-10-14T14:45:42;1.60;;;1.47;;
4391;SDS011;2210;51.938;8.488;2022-10-14T14:49:45;1.50;;;1.40;;
4391;SDS011;2210;51.938;8.488;2022-10-14T14:53:46;2.43;;;1.90;;
4391;SDS011;2210;51.938;8.488;2022-10-14T14:57:54;2.40;;;2.03;;
4391;SDS011;2210;51.938;8.488;2022-10-14T15:01:57;4.10;;;2.33;;
4391;SDS011;2210;51.938;8.488;2022-10-14T15:06:00;2.63;;;2.27;;
4391;SDS011;2210;51.938;8.488;2022-10-14T15:10:04;2.77;;;2.50;;
4391;SDS011;2210;51.938;8.488;2022-10-14T15:14:23;3.10;;;2.80;;
4391;SDS011;2210;51.938;8.488;2022-10-14T15:18:29;3.20;;;2.60;;
4391;SDS011;2210;51.938;8.488;2022-10-14T15:22:36;3.43;;;3.07;;
4391;SDS011;2210;51.938;8.488;2022-10-14T15:26:38;4.50;;;3.50;;
4391;SDS011;2210;51.938;8.488;2022-10-14T15:34:39;3.95;;;3.45;;
4391;SDS011;2210;51.938;8.488;2022-10-14T15:38:40;4.03;;;3.17;;
4391;SDS011;2210;51.938;8.488;2022-10-14T15:42:40;4.20;;;3.63;;
4391;SDS011;2210;51.938;8.488;2022-10-14T15:46:41;4.60;;;3.40;;
4391;SDS011;2210;51.938;8.488;2022-10-14T15:51:01;4.10;;;3.80;;
4391;SDS011;2210;51.938;8.488;2022-10-14T15:55:16;4.50;;;4.10;;
4391;SDS011;2210;51.938;8.488;2022-10-14T15:59:24;4.43;;;3.77;;
4391;SDS011;2210;51.938;8.488;2022-10-14T16:03:25;6.90;;;4.40;;
4391;SDS011;2210;51.938;8.488;2022-10-14T16:07:25;7.40;;;4.20;;
4391;SDS011;2210;51.938;8.488;2022-10-14T16:11:26;5.63;;;5.03;;
4391;SDS011;2210;51.938;8.488;2022-10-14T16:19:38;5.50;;;4.70;;
4391;SDS011;2210;51.938;8.488;2022-10-14T16:23:38;7.43;;;5.67;;
4391;SDS011;2210;51.938;8.488;2022-10-14T16:27:39;6.00;;;5.50;;
4391;SDS011;2210;51.938;8.488;2022-10-14T16:31:39;6.00;;;5.00;;
4391;SDS011;2210;51.938;8.488;2022-10-14T16:35:39;7.57;;;6.80;;
4391;SDS011;2210;51.938;8.488;2022-10-14T16:39:41;7.67;;;6.73;;
4391;SDS011;2210;51.938;8.488;2022-10-14T16:43:42;9.00;;;7.07;;
4391;SDS011;2210;51.938;8.488;2022-10-14T16:47:42;7.23;;;6.53;;
4391;SDS011;2210;51.938;8.488;2022-10-14T16:51:42;9.70;;;8.67;;
4391;SDS011;2210;51.938;8.488;2022-10-14T16:55:43;7.97;;;7.27;;
4391;SDS011;2210;51.938;8.488;2022-10-14T16:59:43;9.10;;;8.30;;
4391;SDS011;2210;51.938;8.488;2022-10-14T17:03:44;8.67;;;7.77;;
4391;SDS011;2210;51.938;8.488;2022-10-14T17:07:44;10.80;;;7.37;;
4391;SDS011;2210;51.938;8.488;2022-10-14T17:11:44;9.27;;;8.30;;
4391;SDS011;2210;51.938;8.488;2022-10-14T17:15:45;8.20;;;7.27;;
4391;SDS011;2210;51.938;8.488;2022-10-14T17:19:46;9.00;;;6.93;;
4391;SDS011;2210;51.938;8.488;2022-10-14T17:23:47;11.43;;;7.13;;
4391;SDS011;2210;51.938;8.488;2022-10-14T17:27:48;10.10;;;8.27;;
4391;SDS011;2210;51.938;8.488;2022-10-14T17:31:48;13.77;;;9.00;;
4391;SDS011;2210;51.938;8.488;2022-10-14T17:35:55;9.20;;;7.90;;
4391;SDS011;2210;51.938;8.488;2022-10-14T17:39:56;11.00;;;7.97;;
4391;SDS011;2210;51.938;8.488;2022-10-14T17:43:57;10.13;;;7.43;;
4391;SDS011;2210;51.938;8.488;2022-10-14T17:47:59;12.13;;;8.40;;
4391;SDS011;2210;51.938;8.488;2022-10-14T17:51:59;10.30;;;8.00;;
4391;SDS011;2210;51.938;8.488;2022-10-14T17:56:02;11.73;;;8.33;;
4391;SDS011;2210;51.938;8.488;2022-10-14T18:00:03;8.93;;;7.73;;
4391;SDS011;2210;51.938;8.488;2022-10-14T18:04:04;9.10;;;7.50;;
4391;SDS011;2210;51.938;8.488;2022-10-14T18:08:06;10.43;;;9.33;;
4391;SDS011;2210;51.938;8.488;2022-10-14T18:12:07;17.93;;;11.30;;
4391;SDS011;2210;51.938;8.488;2022-10-14T18:16:09;11.90;;;9.37;;
4391;SDS011;2210;51.938;8.488;2022-10-14T18:20:12;17.43;;;7.40;;
4391;SDS011;2210;51.938;8.488;2022-10-14T18:24:12;11.17;;;6.90;;
4391;SDS011;2210;51.938;8.488;2022-10-14T18:28:13;11.93;;;7.60;;
4391;SDS011;2210;51.938;8.488;2022-10-14T18:32:13;10.80;;;7.03;;
4391;SDS011;2210;51.938;8.488;2022-10-14T18:36:17;7.70;;;7.00;;
4391;SDS011;2210;51.938;8.488;2022-10-14T18:40:19;7.80;;;7.00;;
4391;SDS011;2210;51.938;8.488;2022-10-14T18:44:20;7.10;;;6.50;;
4391;SDS011;2210;51.938;8.488;2022-10-14T18:48:20;9.07;;;7.50;;
4391;SDS011;2210;51.938;8.488;2022-10-14T18:52:21;7.70;;;6.93;;
4391;SDS011;2210;51.938;8.488;2022-10-14T18:56:26;7.97;;;7.20;;
4391;SDS011;2210;51.938;8.488;2022-10-14T19:00:28;8.80;;;6.37;;
4391;SDS011;2210;51.938;8.488;2022-10-14T19:04:28;10.73;;;6.10;;
4391;SDS011;2210;51.938;8.488;2022-10-14T19:08:28;7.67;;;6.43;;
4391;SDS011;2210;51.938;8.488;2022-10-14T19:12:29;7.10;;;6.40;;
4391;SDS011;2210;51.938;8.488;2022-10-14T19:16:41;6.63;;;5.97;;
4391;SDS011;2210;51.938;8.488;2022-10-14T19:20:43;6.97;;;6.20;;
4391;SDS011;2210;51.938;8.488;2022-10-14T19:24:44;6.43;;;5.80;;
4391;SDS011;2210;51.938;8.488;2022-10-14T19:28:44;6.72;;;5.43;;
4391;SDS011;2210;51.938;8.488;2022-10-14T19:32:45;6.87;;;6.27;;
4391;SDS011;2210;51.938;8.488;2022-10-14T19:36:45;6.50;;;6.00;;
4391;SDS011;2210;51.938;8.488;2022-10-14T19:40:46;7.60;;;6.80;;
4391;SDS011;2210;51.938;8.488;2022-10-14T19:44:46;7.73;;;6.87;;
4391;SDS011;2210;51.938;8.488;2022-10-14T19:48:46;7.07;;;6.13;;
4391;SDS011;2210;51.938;8.488;2022-10-14T19:52:47;7.10;;;6.35;;
4391;SDS011;2210;51.938;8.488;2022-10-14T19:56:47;6.50;;;5.33;;
4391;SDS011;2210;51.938;8.488;2022-10-14T20:00:47;6.03;;;5.23;;
4391;SDS011;2210;51.938;8.488;2022-10-14T20:04:47;5.88;;;5.30;;
4391;SDS011;2210;51.938;8.488;2022-10-14T20:08:48;6.00;;;5.50;;
4391;SDS011;2210;51.938;8.488;2022-10-14T20:12:48;5.83;;;5.30;;
4391;SDS011;2210;51.938;8.488;2022-10-14T20:16:49;6.23;;;5.60;;
4391;SDS011;2210;51.938;8.488;2022-10-14T20:20:49;7.03;;;5.60;;
4391;SDS011;2210;51.938;8.488;2022-10-14T20:24:49;5.90;;;5.40;;
4391;SDS011;2210;51.938;8.488;2022-10-14T20:28:51;6.20;;;5.70;;
4391;SDS011;2210;51.938;8.488;2022-10-14T20:32:51;6.20;;;5.60;;
4391;SDS011;2210;51.938;8.488;2022-10-14T20:36:52;5.97;;;5.37;;
4391;SDS011;2210;51.938;8.488;2022-10-14T20:40:52;7.30;;;5.50;;
4391;SDS011;2210;51.938;8.488;2022-10-14T20:44:52;6.10;;;5.50;;
4391;SDS011;2210;51.938;8.488;2022-10-14T20:48:53;5.67;;;5.17;;
4391;SDS011;2210;51.938;8.488;2022-10-14T20:52:54;6.73;;;6.00;;
4391;SDS011;2210;51.938;8.488;2022-10-14T20:56:55;6.37;;;5.77;;
4391;SDS011;2210;51.938;8.488;2022-10-14T21:01:04;6.70;;;6.03;;
4391;SDS011;2210;51.938;8.488;2022-10-14T21:05:06;7.27;;;6.57;;
4391;SDS011;2210;51.938;8.488;2022-10-14T21:09:07;7.70;;;7.00;;
4391;SDS011;2210;51.938;8.488;2022-10-14T21:13:07;7.70;;;7.00;;
4391;SDS011;2210;51.938;8.488;2022-10-14T21:17:07;7.40;;;6.80;;
4391;SDS011;2210;51.938;8.488;2022-10-14T21:21:08;6.87;;;6.27;;
4391;SDS011;2210;51.938;8.488;2022-10-14T21:25:08;6.83;;;6.23;;
4391;SDS011;2210;51.938;8.488;2022-10-14T21:29:08;7.10;;;6.50;;
4391;SDS011;2210;51.938;8.488;2022-10-14T21:33:09;10.50;;;5.70;;
4391;SDS011;2210;51.938;8.488;2022-10-14T21:37:09;8.43;;;6.95;;
4391;SDS011;2210;51.938;8.488;2022-10-14T21:41:10;8.13;;;7.33;;
4391;SDS011;2210;51.938;8.488;2022-10-14T21:45:10;7.20;;;6.50;;
4391;SDS011;2210;51.938;8.488;2022-10-14T21:49:11;5.77;;;5.27;;
4391;SDS011;2210;51.938;8.488;2022-10-14T21:53:12;6.50;;;5.90;;
4391;SDS011;2210;51.938;8.488;2022-10-14T21:57:12;6.93;;;6.33;;
4391;SDS011;2210;51.938;8.488;2022-10-14T22:01:13;6.43;;;5.83;;
4391;SDS011;2210;51.938;8.488;2022-10-14T22:05:15;7.97;;;7.17;;
4391;SDS011;2210;51.938;8.488;2022-10-14T22:09:16;6.33;;;5.73;;
4391;SDS011;2210;51.938;8.488;2022-10-14T22:13:16;5.73;;;5.20;;
4391;SDS011;2210;51.938;8.488;2022-10-14T22:17:16;5.57;;;5.07;;
4391;SDS011;2210;51.938;8.488;2022-10-14T22:21:17;6.33;;;5.73;;
4391;SDS011;2210;51.938;8.488;2022-10-14T22:25:20;14.30;;;6.20;;
4391;SDS011;2210;51.938;8.488;2022-10-14T22:29:21;7.33;;;5.80;;
4391;SDS011;2210;51.938;8.488;2022-10-14T22:33:21;7.78;;;6.18;;
4391;SDS011;2210;51.938;8.488;2022-10-14T22:37:21;6.40;;;5.80;;
4391;SDS011;2210;51.938;8.488;2022-10-14T22:41:22;10.30;;;6.03;;
4391;SDS011;2210;51.938;8.488;2022-10-14T22:45:23;9.93;;;6.60;;
4391;SDS011;2210;51.938;8.488;2022-10-14T22:49:23;5.90;;;5.40;;
4391;SDS011;2210;51.938;8.488;2022-10-14T22:53:23;6.13;;;5.57;;
4391;SDS011;2210;51.938;8.488;2022-10-14T22:57:26;8.00;;;6.37;;
4391;SDS011;2210;51.938;8.488;2022-10-14T23:01:27;6.37;;;5.77;;
4391;SDS011;2210;51.938;8.488;2022-10-14T23:05:28;6.20;;;5.60;;
4391;SDS011;2210;51.938;8.488;2022-10-14T23:09:28;5.87;;;5.27;;
4391;SDS011;2210;51.938;8.488;2022-10-14T23:13:29;6.17;;;5.57;;
4391;SDS011;2210;51.938;8.488;2022-10-14T23:17:29;6.13;;;5.53;;
4391;SDS011;2210;51.938;8.488;2022-10-14T23:21:33;6.43;;;5.90;;
4391;SDS011;2210;51.938;8.488;2022-10-14T23:25:38;6.27;;;5.77;;
4391;SDS011;2210;51.938;8.488;2022-10-14T23:29:39;6.83;;;6.13;;
4391;SDS011;2210;51.938;8.488;2022-10-14T23:33:39;7.63;;;5.10;;
4391;SDS011;2210;51.938;8.488;2022-10-14T23:37:40;5.80;;;4.77;;
4391;SDS011;2210;51.938;8.488;2022-10-14T23:41:40;6.83;;;5.70;;
4391;SDS011;2210;51.938;8.488;2022-10-14T23:45:41;4.90;;;4.40;;
4391;SDS011;2210;51.938;8.488;2022-10-14T23:49:42;4.90;;;4.50;;
4391;SDS011;2210;51.938;8.488;2022-10-14T23:53:42;5.43;;;4.70;;
4391;SDS011;2210;51.938;8.488;2022-10-14T23:57:43;4.80;;;4.40;;
